Time;durP1;ratioP1;P1;durP2;ratioP2;P2;SDS_P1;SDS_P2;PMS_P1;PMS_P2;Temp;Humidity;BMP_temperature;BMP_pressure;BME280_temperature;BME280_humidity;BME280_pressure;Samples;Min_cycle;Max_cycle;Signal;HPM_P1;HPM_P2
2020/12/19 00:01:47;;;;;;;44.58;6.15;;;;;;;11.53;100.00;100245.88;5111146;28;20039;-65
2020/12/19 00:04:13;;;;;;;42.30;5.55;;;;;;;11.56;100.00;100247.25;5027973;28;20092;-65
2020/12/19 00:06:46;;;;;;;28.48;2.88;;;;;;;11.56;100.00;100237.16;5109314;28;20048;-65
2020/12/19 00:09:12;;;;;;;31.60;3.67;;;;;;;11.57;100.00;100225.13;5115093;28;20480;-65
2020/12/19 00:11:41;;;;;;;24.65;3.33;;;;;;;11.57;100.00;100247.00;5115084;28;20485;-65
2020/12/19 00:14:07;;;;;;;26.27;4.22;;;;;;;11.59;100.00;100250.28;5115003;28;20035;-65
2020/12/19 00:16:32;;;;;;;28.80;3.72;;;;;;;11.61;100.00;100259.03;5114901;28;20042;-64
2020/12/19 00:18:58;;;;;;;39.58;3.25;;;;;;;11.62;100.00;100257.97;5114713;28;20123;-65
2020/12/19 00:21:23;;;;;;;30.45;4.80;;;;;;;11.63;100.00;100256.91;5115047;28;20046;-65
2020/12/19 00:23:49;;;;;;;25.95;3.90;;;;;;;11.65;100.00;100249.25;5114892;28;20123;-65
2020/12/19 00:26:15;;;;;;;46.97;5.47;;;;;;;11.64;100.00;100244.88;5114821;28;20031;-65
2020/12/19 00:28:40;;;;;;;50.05;7.13;;;;;;;11.66;100.00;100233.66;5114682;28;20127;-65
2020/12/19 00:31:07;;;;;;;44.42;5.40;;;;;;;11.65;100.00;100238.31;5114660;28;20032;-65
2020/12/19 00:33:32;;;;;;;51.47;7.55;;;;;;;11.67;100.00;100224.38;5114540;28;20439;-65
2020/12/19 00:35:58;;;;;;;49.72;6.97;;;;;;;11.69;100.00;100231.22;5114470;28;20040;-65
2020/12/19 00:38:24;;;;;;;40.35;5.05;;;;;;;11.71;100.00;100241.88;5113174;28;20065;-65
2020/12/19 00:40:49;;;;;;;52.58;6.10;;;;;;;11.72;100.00;100238.88;5114633;28;20046;-65
2020/12/19 00:43:15;;;;;;;42.00;5.32;;;;;;;11.75;100.00;100249.28;5114450;28;20126;-65
2020/12/19 00:45:40;;;;;;;41.22;5.70;;;;;;;11.76;100.00;100250.94;5114495;28;20113;-65
2020/12/19 00:48:06;;;;;;;42.85;5.93;;;;;;;11.81;100.00;100243.91;5114224;28;20047;-65
2020/12/19 00:50:31;;;;;;;38.47;5.82;;;;;;;11.83;100.00;100222.56;5113136;28;20139;-65
2020/12/19 00:52:57;;;;;;;35.63;5.30;;;;;;;11.87;100.00;100231.88;5114151;28;20071;-65
2020/12/19 00:55:22;;;;;;;50.05;6.65;;;;;;;11.89;100.00;100211.38;5114238;28;20036;-65
2020/12/19 00:57:48;;;;;;;47.25;6.13;;;;;;;11.93;100.00;100222.59;5114084;28;20078;-66
2020/12/19 01:00:13;;;;;;;43.38;5.63;;;;;;;11.95;100.00;100234.09;5114360;28;20136;-65
2020/12/19 01:02:39;;;;;;;41.63;5.80;;;;;;;11.96;100.00;100227.53;5114062;28;20116;-65
2020/12/19 01:05:08;;;;;;;40.20;5.82;;;;;;;11.98;100.00;100219.91;5113980;28;20043;-65
2020/12/19 01:07:40;;;;;;;47.30;6.97;;;;;;;11.97;100.00;100231.94;5113940;28;20043;-65
2020/12/19 01:10:09;;;;;;;39.90;5.88;;;;;;;11.98;100.00;100219.91;5113948;28;20055;-65
2020/12/19 01:12:35;;;;;;;48.92;7.30;;;;;;;11.98;100.00;100225.38;5113933;28;20035;-65
2020/12/19 01:15:01;;;;;;;49.42;6.93;;;;;;;11.96;100.00;100228.38;5113783;27;20043;-65
2020/12/19 01:17:27;;;;;;;42.83;6.18;;;;;;;11.96;100.00;100225.63;5112927;28;20039;-65
2020/12/19 01:19:52;;;;;;;50.92;6.88;;;;;;;11.96;100.00;100227.53;5113450;28;20477;-65
2020/12/19 01:22:22;;;;;;;60.80;7.07;;;;;;;11.96;100.00;100222.06;5111348;28;20061;-64
2020/12/19 01:24:47;;;;;;;43.95;6.85;;;;;;;11.97;100.00;100229.19;5113651;28;20446;-65
2020/12/19 01:27:13;;;;;;;51.67;6.55;;;;;;;11.97;100.00;100218.25;5113491;28;20036;-65
2020/12/19 01:29:39;;;;;;;49.67;6.53;;;;;;;11.97;100.00;100218.25;5113784;28;20036;-66
2020/12/19 01:32:04;;;;;;;60.47;6.35;;;;;;;11.96;100.00;100227.53;5113394;28;20541;-65
2020/12/19 01:34:30;;;;;;;45.42;6.38;;;;;;;11.95;100.00;100220.44;5113603;27;20050;-66
2020/12/19 01:36:55;;;;;;;60.30;6.93;;;;;;;11.94;100.00;100225.06;5113312;27;20127;-65
2020/12/19 01:39:22;;;;;;;57.38;7.55;;;;;;;11.93;100.00;100234.38;5113384;28;20035;-66
2020/12/19 01:41:48;;;;;;;54.63;7.25;;;;;;;11.92;100.00;100220.97;5112033;28;20046;-66
2020/12/19 01:44:13;;;;;;;49.22;7.43;;;;;;;11.90;100.00;100217.66;5113278;28;20397;-65
2020/12/19 01:47:00;;;;;;;49.20;6.50;;;;;;;11.89;100.00;100233.28;5113200;28;20035;-65
2020/12/19 01:49:29;;;;;;;56.67;8.25;;;;;;;11.90;100.00;100234.91;5113110;28;20474;-65
2020/12/19 01:51:57;;;;;;;40.40;6.60;;;;;;;11.90;100.00;100223.97;5111741;28;20039;-65
2020/12/19 01:54:23;;;;;;;39.75;7.55;;;;;;;11.92;100.00;100234.66;5113048;28;20433;-65
2020/12/19 01:56:50;;;;;;;50.65;6.28;;;;;;;11.95;100.00;100234.09;5112708;28;20050;-65
2020/12/19 01:59:17;;;;;;;49.80;8.23;;;;;;;11.96;100.00;100244.78;5111465;28;20496;-66
2020/12/19 02:01:47;;;;;;;45.83;5.75;;;;;;;11.96;100.00;100228.38;5112948;28;20039;-65
2020/12/19 02:04:14;;;;;;;41.75;5.60;;;;;;;12.01;100.00;100235.81;5113170;28;20039;-66
2020/12/19 02:06:42;;;;;;;42.95;6.55;;;;;;;12.03;100.00;100217.19;5111421;28;20119;-65
2020/12/19 02:09:08;;;;;;;47.35;5.00;;;;;;;12.06;100.00;100216.66;5112834;28;20027;-65
2020/12/19 02:11:34;;;;;;;49.80;8.07;;;;;;;12.09;100.00;100224.31;5112710;28;20092;-65
2020/12/19 02:14:00;;;;;;;57.38;7.15;;;;;;;12.12;100.00;100229.25;5112666;28;20042;-66
2020/12/19 02:16:26;;;;;;;52.58;7.15;;;;;;;12.12;100.00;100232.00;5112554;28;20040;-65
2020/12/19 02:18:51;;;;;;;50.42;7.15;;;;;;;12.13;100.00;100227.34;5111167;28;20048;-65
2020/12/19 02:21:17;;;;;;;48.78;5.97;;;;;;;12.11;100.00;100235.81;5112635;28;20040;-65
2020/12/19 02:23:43;;;;;;;45.15;6.00;;;;;;;12.12;100.00;100248.41;5112508;28;20076;-65
2020/12/19 02:26:08;;;;;;;55.28;6.80;;;;;;;12.11;100.00;100224.88;5112432;28;20118;-66
2020/12/19 02:28:34;;;;;;;47.22;7.18;;;;;;;12.12;100.00;100234.75;5112363;28;20039;-65
2020/12/19 02:31:00;;;;;;;42.95;6.72;;;;;;;12.11;100.00;100230.34;5112237;28;20053;-65
2020/12/19 02:33:25;;;;;;;44.58;5.47;;;;;;;12.09;100.00;100227.06;5112281;28;20070;-65
2020/12/19 02:35:51;;;;;;;41.90;6.40;;;;;;;12.08;100.00;100226.25;5112185;28;20039;-65
2020/12/19 02:38:16;;;;;;;38.58;6.55;;;;;;;12.08;100.00;100220.78;5112191;28;20036;-65
2020/12/19 02:40:42;;;;;;;42.38;6.13;;;;;;;12.09;100.00;100221.59;5110818;28;20039;-65
2020/12/19 02:43:08;;;;;;;39.97;6.38;;;;;;;12.08;100.00;100214.47;5112111;28;20050;-65
2020/12/19 02:45:33;;;;;;;45.38;6.18;;;;;;;12.09;100.00;100213.38;5112364;28;20027;-65
2020/12/19 02:47:59;;;;;;;39.90;6.25;;;;;;;12.08;100.00;100212.56;5111940;28;20493;-65
2020/12/19 02:50:25;;;;;;;44.50;6.03;;;;;;;12.09;100.00;100210.63;5112098;28;20032;-65
2020/12/19 02:52:50;;;;;;;38.72;6.13;;;;;;;12.07;100.00;100219.13;5111882;28;20036;-65
2020/12/19 02:55:16;;;;;;;43.35;5.97;;;;;;;12.06;100.00;100216.66;5111818;28;20048;-66
2020/12/19 02:57:41;;;;;;;35.88;5.28;;;;;;;12.03;100.00;100211.72;5111528;28;20055;-66
2020/12/19 03:00:07;;;;;;;46.00;6.35;;;;;;;12.02;100.00;100210.06;5111875;28;20081;-65
2020/12/19 03:02:32;;;;;;;41.50;6.05;;;;;;;11.98;100.00;100219.91;5111789;28;20061;-65
2020/12/19 03:04:58;;;;;;;50.25;6.25;;;;;;;11.95;100.00;100225.91;5111753;28;20053;-65
2020/12/19 03:07:24;;;;;;;44.65;6.05;;;;;;;11.92;100.00;100220.97;5111681;28;20060;-66
2020/12/19 03:09:49;;;;;;;42.60;6.00;;;;;;;11.90;100.00;100217.66;5111736;28;20036;-65
2020/12/19 03:12:15;;;;;;;33.05;5.07;;;;;;;11.90;100.00;100212.19;5111545;28;20046;-66
2020/12/19 03:14:40;;;;;;;43.75;6.53;;;;;;;11.88;100.00;100211.66;5111513;28;20092;-66
2020/12/19 03:17:06;;;;;;;38.33;5.47;;;;;;;11.86;100.00;100235.72;5111489;28;20043;-65
2020/12/19 03:19:32;;;;;;;9.23;1.35;;;;;;;11.48;100.00;100229.44;5111566;28;20385;-66
2020/12/19 03:21:57;;;;;;;8.65;1.30;;;;;;;11.22;100.00;100233.88;5111446;28;20089;-66
2020/12/19 03:24:23;;;;;;;9.27;1.33;;;;;;;10.97;100.00;100231.78;5111465;28;20122;-65
2020/12/19 03:26:49;;;;;;;7.50;1.40;;;;;;;10.81;100.00;100238.19;5111353;28;20089;-66
2020/12/19 03:29:14;;;;;;;11.45;1.67;;;;;;;10.71;100.00;100238.06;5111368;28;20040;-65
2020/12/19 03:31:40;;;;;;;13.48;1.52;;;;;;;10.64;100.00;100242.91;5111433;28;20035;-66
2020/12/19 03:34:05;;;;;;;12.98;1.92;;;;;;;10.57;100.00;100249.38;5111419;28;20043;-65
2020/12/19 03:36:31;;;;;;;14.50;2.13;;;;;;;10.55;100.00;100243.38;5111681;28;20415;-65
2020/12/19 03:38:57;;;;;;;15.98;2.75;;;;;;;10.55;100.00;100256.19;5111307;28;20035;-65
2020/12/19 03:41:22;;;;;;;21.33;3.15;;;;;;;10.54;100.00;100228.06;5114147;28;20060;-66
2020/12/19 03:43:48;;;;;;;19.10;3.60;;;;;;;10.57;100.00;100232.19;5118109;27;20066;-65
2020/12/19 03:46:15;;;;;;;18.10;2.45;;;;;;;10.58;100.00;100240.13;5118077;27;20193;-66
2020/12/19 03:48:42;;;;;;;29.10;4.00;;;;;;;10.58;100.00;100234.66;5118005;27;20032;-65
2020/12/19 03:51:08;;;;;;;19.95;2.47;;;;;;;10.58;100.00;100229.19;5118124;27;20036;-66
2020/12/19 03:53:33;;;;;;;28.33;3.53;;;;;;;10.57;100.00;100238.47;5118335;27;20035;-65
2020/12/19 03:55:59;;;;;;;15.90;1.83;;;;;;;10.55;100.00;100235.16;5117908;27;20050;-65
2020/12/19 03:58:24;;;;;;;11.38;1.52;;;;;;;10.53;100.00;100237.34;5117607;28;20066;-65
2020/12/19 04:00:50;;;;;;;11.57;1.60;;;;;;;10.51;100.00;100228.59;5118429;27;20069;-65
2020/12/19 04:03:16;;;;;;;12.82;1.20;;;;;;;10.51;100.00;100217.66;5117811;28;20039;-64
2020/12/19 04:05:41;;;;;;;10.52;1.70;;;;;;;10.51;100.00;100225.84;5118003;27;20080;-65
2020/12/19 04:08:07;;;;;;;9.50;1.52;;;;;;;10.52;100.00;100230.22;5117840;27;20042;-66
2020/12/19 04:10:33;;;;;;;7.68;1.27;;;;;;;10.55;100.00;100218.78;5117826;27;20071;-65
2020/12/19 04:12:58;;;;;;;18.02;2.00;;;;;;;10.57;100.00;100227.53;5118012;28;20481;-65
2020/12/19 04:15:24;;;;;;;16.13;2.15;;;;;;;10.59;100.00;100219.13;5117760;27;20126;-64
2020/12/19 04:17:51;;;;;;;15.10;2.28;;;;;;;10.62;100.00;100223.25;5117792;27;20058;-64
2020/12/19 04:20:17;;;;;;;20.95;2.20;;;;;;;10.66;100.00;100213.44;5117848;27;20035;-65
2020/12/19 04:22:43;;;;;;;16.52;3.10;;;;;;;10.69;100.00;100218.38;5117728;27;20050;-65
2020/12/19 04:25:11;;;;;;;14.55;2.15;;;;;;;10.72;100.00;100223.31;5117763;27;20405;-66
2020/12/19 04:27:38;;;;;;;16.73;2.45;;;;;;;10.74;100.00;100215.69;5117650;27;20043;-65
2020/12/19 04:30:06;;;;;;;12.10;1.75;;;;;;;10.77;100.00;100215.19;5117711;27;20039;-65
2020/12/19 04:32:31;;;;;;;16.58;2.67;;;;;;;10.80;100.00;100215.50;5117569;27;20431;-65
2020/12/19 04:34:57;;;;;;;18.98;2.30;;;;;;;10.84;100.00;100210.34;5117727;27;20039;-65
2020/12/19 04:37:23;;;;;;;15.02;2.65;;;;;;;10.87;100.00;100223.47;5116032;28;20107;-65
2020/12/19 04:39:49;;;;;;;23.15;2.97;;;;;;;10.90;100.00;100217.47;5117681;28;20040;-66
2020/12/19 04:42:15;;;;;;;22.20;3.30;;;;;;;10.94;100.00;100224.09;5117578;27;20076;-65
2020/12/19 04:44:41;;;;;;;26.83;2.97;;;;;;;10.97;100.00;100228.22;5117558;27;20051;-65
2020/12/19 04:47:07;;;;;;;18.83;2.05;;;;;;;11.01;100.00;100232.91;5117450;27;20031;-66
2020/12/19 04:49:35;;;;;;;20.67;3.00;;;;;;;11.06;100.00;100230.19;5117468;28;20105;-65
2020/12/19 04:52:01;;;;;;;16.55;2.55;;;;;;;11.09;100.00;100237.88;5117025;27;20050;-65
2020/12/19 04:54:28;;;;;;;27.58;3.97;;;;;;;11.11;100.00;100241.19;5114227;28;20046;-66
2020/12/19 04:56:55;;;;;;;29.42;3.45;;;;;;;11.14;100.00;100243.41;5114433;28;20031;-65
2020/12/19 04:59:21;;;;;;;24.77;3.20;;;;;;;11.14;100.00;100243.41;5114036;28;20408;-66
2020/12/19 05:01:47;;;;;;;25.05;3.60;;;;;;;11.14;100.00;100243.41;5114183;28;20039;-66
2020/12/19 05:04:14;;;;;;;32.83;3.97;;;;;;;11.15;100.00;100244.22;5113996;28;20405;-65
2020/12/19 05:06:40;;;;;;;26.98;3.67;;;;;;;11.14;100.00;100248.03;5114095;28;20035;-65
2020/12/19 05:09:05;;;;;;;37.10;4.82;;;;;;;11.14;100.00;100243.41;5113907;28;20027;-64
2020/12/19 05:11:31;;;;;;;29.45;4.20;;;;;;;11.12;100.00;100251.03;5113961;28;20058;-65
2020/12/19 05:13:57;;;;;;;29.10;4.32;;;;;;;11.07;100.00;100248.25;5113913;28;20036;-66
2020/12/19 05:16:22;;;;;;;23.60;3.30;;;;;;;11.07;100.00;100255.63;5113784;28;20043;-66
2020/12/19 05:18:48;;;;;;;34.42;3.97;;;;;;;11.05;100.00;100261.34;5113757;28;20093;-66
2020/12/19 05:21:14;;;;;;;31.85;3.58;;;;;;;11.05;100.00;100269.53;5113664;28;20047;-65
2020/12/19 05:23:42;;;;;;;24.00;3.47;;;;;;;11.04;100.00;100270.63;5113655;28;20503;-66
2020/12/19 05:26:10;;;;;;;33.58;4.90;;;;;;;11.06;100.00;100267.63;5112331;28;20031;-65
2020/12/19 05:28:41;;;;;;;32.15;4.72;;;;;;;11.06;100.00;100260.25;5113587;28;20081;-65
2020/12/19 05:31:07;;;;;;;30.58;3.83;;;;;;;11.08;100.00;100266.28;5113638;28;20441;-65
2020/12/19 05:33:39;;;;;;;30.63;4.80;;;;;;;11.09;100.00;100267.94;5113484;28;20100;-66
2020/12/19 05:36:06;;;;;;;35.45;3.83;;;;;;;11.10;100.00;100263.28;5113332;28;20055;-65
2020/12/19 05:38:37;;;;;;;32.25;4.68;;;;;;;11.11;100.00;100265.78;5113323;28;20035;-66
2020/12/19 05:41:03;;;;;;;36.25;5.13;;;;;;;11.11;100.00;100249.41;5113712;28;20043;-66
2020/12/19 05:43:29;;;;;;;34.22;5.15;;;;;;;11.14;100.00;100248.03;5113187;28;20048;-66
2020/12/19 05:45:55;;;;;;;36.60;6.13;;;;;;;11.16;100.00;100257.63;5113398;28;20031;-65
2020/12/19 05:48:21;;;;;;;30.70;4.78;;;;;;;11.18;100.00;100258.19;5113156;28;20046;-65
2020/12/19 05:50:47;;;;;;;28.73;4.40;;;;;;;11.21;100.00;100258.75;5113711;28;20100;-65
2020/12/19 05:53:14;;;;;;;38.58;5.70;;;;;;;11.22;100.00;100265.88;5113021;28;20043;-66
2020/12/19 05:55:40;;;;;;;45.53;5.68;;;;;;;11.21;100.00;100269.69;5111568;28;20439;-65
2020/12/19 05:58:06;;;;;;;42.47;6.57;;;;;;;11.22;100.00;100274.06;5112760;28;20063;-66
2020/12/19 06:00:33;;;;;;;50.28;5.38;;;;;;;11.22;100.00;100271.34;5112950;28;20460;-66
2020/12/19 06:03:04;;;;;;;44.53;5.53;;;;;;;11.23;100.00;100279.28;5112911;28;20087;-66
2020/12/19 06:05:31;;;;;;;40.83;4.85;;;;;;;11.25;100.00;100270.81;5111007;28;20077;-66
2020/12/19 06:07:58;;;;;;;36.75;4.95;;;;;;;11.28;100.00;100282.06;5112813;28;20043;-65
2020/12/19 06:10:23;;;;;;;38.92;6.63;;;;;;;11.31;100.00;100269.78;5112799;28;20485;-65
2020/12/19 06:13:13;;;;;;;32.72;5.68;;;;;;;11.37;100.00;100290.59;5113013;28;20035;-65
2020/12/19 06:15:56;;;;;;;43.88;5.28;;;;;;;11.40;100.00;100292.81;5112599;28;20047;-65
2020/12/19 06:18:44;;;;;;;51.50;5.85;;;;;;;11.39;100.00;100293.91;5112754;28;20118;-64
2020/12/19 06:21:11;;;;;;;39.22;5.60;;;;;;;11.40;100.00;100295.53;5112582;28;20034;-65
2020/12/19 06:23:37;;;;;;;35.20;5.50;;;;;;;11.42;100.00;100285.16;5112511;28;20091;-66
2020/12/19 06:26:04;;;;;;;43.03;6.47;;;;;;;11.44;100.00;100289.28;5112467;27;20062;-66
2020/12/19 06:28:42;;;;;;;40.83;5.05;;;;;;;11.46;100.00;100284.41;5112557;28;20036;-65
2020/12/19 06:31:21;;;;;;;34.42;4.75;;;;;;;11.46;100.00;100294.50;5112477;28;20031;-65
2020/12/19 06:33:49;;;;;;;46.30;6.75;;;;;;;11.46;100.00;100289.03;5112376;28;20039;-65
2020/12/19 06:36:19;;;;;;;43.97;6.07;;;;;;;11.42;100.00;100298.84;5112395;28;20036;-65
2020/12/19 06:38:46;;;;;;;46.60;6.75;;;;;;;11.40;100.00;100306.47;5112151;28;20051;-66
2020/12/19 06:41:52;;;;;;;32.97;5.90;;;;;;;11.38;100.00;100308.66;5112164;28;20036;-65
2020/12/19 06:44:33;;;;;;;38.70;5.50;;;;;;;11.35;100.00;100306.44;5112116;28;20496;-65
2020/12/19 06:47:01;;;;;;;39.13;6.45;;;;;;;11.33;100.00;100301.25;5112106;28;20447;-65
2020/12/19 06:49:28;;;;;;;42.08;5.50;;;;;;;11.29;100.00;100299.28;5112107;28;20036;-66
2020/12/19 06:52:00;;;;;;;33.33;4.95;;;;;;;11.25;100.00;100300.88;5112155;28;20481;-65
2020/12/19 06:54:43;;;;;;;43.03;5.65;;;;;;;11.21;100.00;100307.94;5111983;28;20446;-66
2020/12/19 06:57:24;;;;;;;40.40;5.95;;;;;;;11.19;100.00;100305.47;5111855;28;20035;-65
2020/12/19 06:59:49;;;;;;;40.47;4.20;;;;;;;11.20;100.00;100306.31;5112092;28;20031;-65
2020/12/19 07:02:21;;;;;;;39.60;5.80;;;;;;;11.21;100.00;100307.94;5111666;28;20046;-65
2020/12/19 07:04:47;;;;;;;44.97;5.80;;;;;;;11.20;100.00;100306.31;5111930;28;20027;-65
2020/12/19 07:07:26;;;;;;;34.72;5.30;;;;;;;11.21;100.00;100297.84;5111744;28;20504;-66
2020/12/19 07:10:00;;;;;;;37.28;5.15;;;;;;;11.21;100.00;100297.03;5111839;28;20027;-65
2020/12/19 07:12:37;;;;;;;46.65;7.45;;;;;;;11.20;100.00;100311.78;5111707;28;20042;-66
2020/12/19 07:15:24;;;;;;;44.78;5.55;;;;;;;11.20;100.00;100311.78;5111457;28;20071;-65
2020/12/19 07:17:50;;;;;;;40.78;6.40;;;;;;;11.21;100.00;100321.63;5110974;28;20039;-66
2020/12/19 07:20:22;;;;;;;49.97;5.75;;;;;;;11.18;100.00;100318.31;5111547;27;20066;-65
2020/12/19 07:22:51;;;;;;;35.75;4.68;;;;;;;11.21;100.00;100329.81;5111498;28;20062;-65
2020/12/19 07:25:17;;;;;;;48.78;7.15;;;;;;;11.22;100.00;100315.06;5111676;28;20031;-65
2020/12/19 07:27:42;;;;;;;44.92;7.10;;;;;;;11.24;100.00;100323.81;5111477;28;20262;-65
2020/12/19 07:30:08;;;;;;;35.60;5.18;;;;;;;11.26;100.00;100321.66;5111465;28;20035;-65
2020/12/19 07:32:34;;;;;;;44.60;5.82;;;;;;;11.27;100.00;100328.78;5111295;28;20035;-65
2020/12/19 07:35:00;;;;;;;39.33;5.72;;;;;;;11.28;100.00;100319.47;5111343;28;20172;-65
2020/12/19 07:37:26;;;;;;;43.40;6.97;;;;;;;11.29;100.00;100322.00;5111244;28;20036;-66
2020/12/19 07:40:12;;;;;;;61.90;6.25;;;;;;;11.30;100.00;100317.34;5111479;28;20373;-65
2020/12/19 07:42:37;;;;;;;45.10;6.55;;;;;;;11.31;100.00;100321.72;5110964;28;20142;-65
2020/12/19 07:45:04;;;;;;;41.50;5.97;;;;;;;11.30;100.00;100318.16;5111846;28;20481;-65
2020/12/19 07:47:29;;;;;;;44.80;6.57;;;;;;;11.32;100.00;100320.63;5111146;28;20097;-66
2020/12/19 07:49:55;;;;;;;49.90;7.60;;;;;;;11.37;100.00;100323.41;5111249;28;20481;-66
2020/12/19 07:52:23;;;;;;;51.38;6.28;;;;;;;11.40;100.00;100317.41;5111184;28;20519;-65
2020/12/19 07:54:57;;;;;;;45.33;7.35;;;;;;;11.44;100.00;100330.28;5111332;28;20027;-65
2020/12/19 07:57:24;;;;;;;39.28;4.55;;;;;;;11.37;100.00;100356.22;5111003;28;20050;-65
2020/12/19 07:59:50;;;;;;;22.30;3.10;;;;;;;11.26;100.00;100370.88;5111146;28;20554;-65
2020/12/19 08:02:17;;;;;;;14.75;2.70;;;;;;;11.09;100.00;100360.84;5111382;28;20044;-66
2020/12/19 08:05:09;;;;;;;20.40;2.83;;;;;;;10.92;100.00;100360.13;5111122;28;20047;-65
2020/12/19 08:07:34;;;;;;;19.90;2.33;;;;;;;10.80;100.00;100356.72;5107201;28;20108;-65
2020/12/19 08:10:05;;;;;;;23.65;3.03;;;;;;;10.72;100.00;100346.22;5111083;28;20036;-65
2020/12/19 08:12:31;;;;;;;15.68;2.83;;;;;;;10.66;100.00;100350.00;5111069;28;20054;-65
2020/12/19 08:14:59;;;;;;;19.25;2.78;;;;;;;10.64;100.00;100343.97;5111186;28;20027;-65
2020/12/19 08:17:26;;;;;;;16.23;2.80;;;;;;;10.61;100.00;100341.75;5110997;28;20304;-65
2020/12/19 08:19:56;;;;;;;24.65;2.90;;;;;;;10.57;100.00;100352.31;5110994;28;20053;-65
2020/12/19 08:22:22;;;;;;;22.33;2.90;;;;;;;10.57;100.00;100347.69;5110849;28;20038;-65
2020/12/19 08:24:48;;;;;;;20.25;3.67;;;;;;;10.60;100.00;100353.75;5110848;28;20036;-65
2020/12/19 08:27:35;;;;;;;33.33;4.10;;;;;;;10.62;100.00;100365.25;5111694;28;20024;-66
2020/12/19 08:30:04;;;;;;;28.10;3.97;;;;;;;10.66;100.00;100416.38;5115085;28;20089;-65
2020/12/19 08:32:30;;;;;;;13.15;2.15;;;;;;;10.38;100.00;100397.41;5115148;28;20042;-64
2020/12/19 08:34:56;;;;;;;11.23;2.33;;;;;;;10.27;100.00;100380.91;5114731;28;20035;-65
2020/12/19 08:37:22;;;;;;;20.63;2.85;;;;;;;10.16;100.00;100375.50;5114416;28;20040;-64
2020/12/19 08:40:06;;;;;;;14.10;2.03;;;;;;;10.06;100.00;100367.16;5114594;28;20040;-65
2020/12/19 08:42:32;;;;;;;28.00;3.83;;;;;;;10.05;100.00;100387.34;5114489;28;20035;-64
2020/12/19 08:45:25;;;;;;;19.23;3.08;;;;;;;10.09;100.00;100389.34;5114552;28;20031;-65
2020/12/19 08:47:56;;;;;;;19.23;2.72;;;;;;;10.14;100.00;100394.88;5115034;28;20040;-65
2020/12/19 08:50:30;;;;;;;22.80;3.58;;;;;;;10.20;100.00;100391.13;5114774;27;20114;-64
2020/12/19 08:53:15;;;;;;;22.40;3.57;;;;;;;10.27;100.00;100393.72;5114319;28;20046;-64
2020/12/19 08:55:40;;;;;;;22.02;3.35;;;;;;;10.29;100.00;100391.56;5114248;28;20028;-65
2020/12/19 08:58:06;;;;;;;29.48;5.05;;;;;;;10.34;100.00;100391.63;5113826;28;20051;-65
2020/12/19 09:00:34;;;;;;;41.95;4.57;;;;;;;10.39;100.00;100399.88;5114205;28;20044;-64
2020/12/19 09:03:07;;;;;;;37.85;5.30;;;;;;;10.43;100.00;100401.06;5114340;28;20046;-65
2020/12/19 09:05:38;;;;;;;30.75;4.97;;;;;;;10.49;100.00;100405.50;5114225;27;20354;-64
2020/12/19 09:08:04;;;;;;;37.38;5.53;;;;;;;10.55;100.00;100404.47;5114082;28;20366;-65
2020/12/19 09:10:32;;;;;;;35.40;5.45;;;;;;;10.58;100.00;100397.66;5114493;28;20047;-66
2020/12/19 09:13:11;;;;;;;41.22;5.20;;;;;;;10.63;100.00;100402.41;5113880;28;20039;-65
2020/12/19 09:15:38;;;;;;;46.15;6.60;;;;;;;10.68;100.00;100418.84;5113805;28;20462;-65
2020/12/19 09:18:20;;;;;;;45.60;6.40;;;;;;;10.74;100.00;100418.66;5112744;28;20441;-65
2020/12/19 09:20:52;;;;;;;31.65;4.78;;;;;;;10.79;100.00;100424.19;5113990;27;20035;-66
2020/12/19 09:23:18;;;;;;;32.33;4.65;;;;;;;10.87;100.00;100421.00;5113807;28;20470;-64
2020/12/19 09:25:45;;;;;;;32.92;3.95;;;;;;;10.92;100.00;100414.75;5113631;28;20089;-65
2020/12/19 09:28:11;;;;;;;23.67;4.35;;;;;;;10.98;100.00;100419.22;5113554;28;20042;-65
2020/12/19 09:30:37;;;;;;;44.15;5.43;;;;;;;11.01;100.00;100424.19;5113587;28;20133;-65
2020/12/19 09:33:02;;;;;;;36.10;6.32;;;;;;;11.03;100.00;100427.47;5113565;28;20043;-65
2020/12/19 09:35:29;;;;;;;24.65;3.90;;;;;;;11.07;100.00;100436.81;5113642;28;20036;-65
2020/12/19 09:37:55;;;;;;;38.33;5.75;;;;;;;11.16;100.00;100427.09;5113447;28;20131;-64
2020/12/19 09:40:21;;;;;;;41.65;6.55;;;;;;;11.21;100.00;100436.44;5111350;28;20051;-65
2020/12/19 09:42:46;;;;;;;38.35;5.40;;;;;;;11.26;100.00;100425.53;5113367;28;20063;-65
2020/12/19 09:45:12;;;;;;;37.05;5.22;;;;;;;11.28;100.00;100435.16;5113376;28;20392;-64
2020/12/19 09:47:41;;;;;;;46.05;6.80;;;;;;;11.33;100.00;100443.41;5113165;28;20389;-65
2020/12/19 09:50:11;;;;;;;39.17;5.70;;;;;;;11.37;100.00;100447.28;5113217;28;20039;-66
2020/12/19 09:52:37;;;;;;;37.55;4.85;;;;;;;11.38;100.00;100439.91;5113358;27;20488;-66
2020/12/19 09:55:08;;;;;;;37.70;5.72;;;;;;;11.42;100.00;100454.69;5113358;28;20139;-66
2020/12/19 09:57:34;;;;;;;36.78;5.65;;;;;;;11.44;100.00;100456.09;5113097;28;20031;-65
2020/12/19 10:00:00;;;;;;;38.92;5.28;;;;;;;11.46;100.00;100442.19;5112857;28;20512;-65
2020/12/19 10:02:26;;;;;;;48.13;4.90;;;;;;;11.48;100.00;100462.72;5112904;28;20083;-66
2020/12/19 10:04:52;;;;;;;41.50;5.30;;;;;;;11.52;100.00;100463.03;5113346;28;20155;-65
2020/12/19 10:07:17;;;;;;;33.05;4.95;;;;;;;11.56;100.00;100468.78;5112819;28;20123;-65
2020/12/19 10:09:43;;;;;;;38.83;6.03;;;;;;;11.57;100.00;100471.28;5112971;28;20430;-65
2020/12/19 10:12:09;;;;;;;41.20;5.95;;;;;;;11.59;100.00;100473.75;5112955;28;20051;-65
2020/12/19 10:14:34;;;;;;;41.60;5.32;;;;;;;11.61;100.00;100488.81;5112722;28;20088;-65
2020/12/19 10:17:00;;;;;;;52.20;8.15;;;;;;;11.63;100.00;100489.41;5112583;28;20028;-65
2020/12/19 10:19:25;;;;;;;39.00;5.75;;;;;;;11.67;100.00;100493.28;5112691;28;20410;-64
2020/12/19 10:21:51;;;;;;;41.95;6.07;;;;;;;11.73;100.00;100486.75;5112649;28;20035;-66
2020/12/19 10:24:17;;;;;;;47.28;7.50;;;;;;;11.84;100.00;100490.47;5112535;28;20108;-65
2020/12/19 10:26:46;;;;;;;36.03;5.43;;;;;;;12.01;100.00;100487.59;5112575;28;20062;-64
2020/12/19 10:29:12;;;;;;;41.95;6.47;;;;;;;12.12;100.00;100497.53;5112595;28;20562;-66
2020/12/19 10:31:37;;;;;;;33.03;5.00;;;;;;;12.27;100.00;100496.84;5112500;28;20032;-64
2020/12/19 10:34:03;;;;;;;50.55;7.10;;;;;;;12.37;100.00;100480.50;5112277;28;20036;-66
2020/12/19 10:36:28;;;;;;;42.58;6.32;;;;;;;12.32;100.00;100494.13;5112225;28;20394;-65
2020/12/19 10:38:54;;;;;;;41.15;6.03;;;;;;;12.24;100.00;100494.63;5110742;28;20481;-65
2020/12/19 10:41:19;;;;;;;33.22;5.63;;;;;;;12.08;100.00;100482.72;5112276;28;20044;-65
2020/12/19 10:43:45;;;;;;;41.97;6.82;;;;;;;12.11;100.00;100498.63;5110928;28;20489;-65
2020/12/19 10:46:11;;;;;;;38.58;6.50;;;;;;;12.12;100.00;100492.06;5112330;28;20039;-65
2020/12/19 10:48:36;;;;;;;36.20;5.55;;;;;;;12.18;100.00;100496.50;5111915;28;20039;-65
2020/12/19 10:51:02;;;;;;;37.05;7.15;;;;;;;12.17;100.00;100497.59;5112054;28;20039;-65
2020/12/19 10:53:28;;;;;;;39.22;6.45;;;;;;;12.14;100.00;100509.03;5111870;28;20040;-66
2020/12/19 10:55:53;;;;;;;44.85;6.88;;;;;;;12.19;100.00;100500.91;5111757;28;20035;-65
2020/12/19 10:58:19;;;;;;;46.33;6.22;;;;;;;12.27;100.00;100502.31;5111699;28;20094;-65
2020/12/19 11:00:45;;;;;;;40.30;6.82;;;;;;;12.36;100.00;100503.50;5112222;28;20043;-66
2020/12/19 11:03:10;;;;;;;45.22;7.47;;;;;;;12.44;100.00;100496.69;5111989;28;20469;-66
2020/12/19 11:05:39;;;;;;;45.63;6.30;;;;;;;12.55;100.00;100506.66;5112226;28;20504;-64
2020/12/19 11:08:05;;;;;;;52.47;7.53;;;;;;;12.59;100.00;100500.38;5112011;28;20128;-66
2020/12/19 11:10:31;;;;;;;39.85;6.38;;;;;;;12.61;100.00;100500.09;5112053;28;20059;-64
2020/12/19 11:12:57;;;;;;;44.92;8.07;;;;;;;12.60;100.00;100501.19;5112007;28;20039;-65